sensor_id;sensor_type;location;lat;lon;timestamp;P1;durP1;ratioP1;P2;durP2;ratioP2
26989;SDS011;14537;47.788;11.858;2024-03-08T00:00:15;33.10;;;12.90;;
26989;SDS011;14537;47.788;11.858;2024-03-08T00:02:47;33.75;;;12.52;;
26989;SDS011;14537;47.788;11.858;2024-03-08T00:05:15;33.15;;;12.70;;
26989;SDS011;14537;47.788;11.858;2024-03-08T00:07:43;33.67;;;12.93;;
26989;SDS011;14537;47.788;11.858;2024-03-08T00:10:09;37.72;;;12.80;;
26989;SDS011;14537;47.788;11.858;2024-03-08T00:12:39;33.40;;;12.90;;
26989;SDS011;14537;47.788;11.858;2024-03-08T00:15:11;33.63;;;13.23;;
26989;SDS011;14537;47.788;11.858;2024-03-08T00:17:41;30.58;;;13.02;;
26989;SDS011;14537;47.788;11.858;2024-03-08T00:20:07;32.85;;;13.10;;
26989;SDS011;14537;47.788;11.858;2024-03-08T00:22:36;37.05;;;12.57;;
26989;SDS011;14537;47.788;11.858;2024-03-08T00:25:06;35.03;;;13.23;;
26989;SDS011;14537;47.788;11.858;2024-03-08T00:27:35;31.73;;;13.07;;
26989;SDS011;14537;47.788;11.858;2024-03-08T00:30:01;33.78;;;13.82;;
26989;SDS011;14537;47.788;11.858;2024-03-08T00:32:27;30.52;;;12.10;;
26989;SDS011;14537;47.788;11.858;2024-03-08T00:34:56;33.85;;;13.82;;
26989;SDS011;14537;47.788;11.858;2024-03-08T00:37:21;36.90;;;13.35;;
26989;SDS011;14537;47.788;11.858;2024-03-08T00:39:50;30.20;;;11.90;;
26989;SDS011;14537;47.788;11.858;2024-03-08T00:42:17;29.60;;;12.10;;
26989;SDS011;14537;47.788;11.858;2024-03-08T00:44:42;31.48;;;12.25;;
26989;SDS011;14537;47.788;11.858;2024-03-08T00:47:08;27.20;;;11.88;;
26989;SDS011;14537;47.788;11.858;2024-03-08T00:49:34;33.40;;;13.18;;
26989;SDS011;14537;47.788;11.858;2024-03-08T00:52:01;23.92;;;10.93;;
26989;SDS011;14537;47.788;11.858;2024-03-08T00:54:27;33.03;;;13.98;;
26989;SDS011;14537;47.788;11.858;2024-03-08T00:56:53;27.75;;;11.73;;
26989;SDS011;14537;47.788;11.858;2024-03-08T00:59:18;29.45;;;12.45;;
26989;SDS011;14537;47.788;11.858;2024-03-08T01:01:44;30.05;;;10.90;;
26989;SDS011;14537;47.788;11.858;2024-03-08T01:04:10;33.20;;;12.57;;
26989;SDS011;14537;47.788;11.858;2024-03-08T01:06:36;28.67;;;11.32;;
26989;SDS011;14537;47.788;11.858;2024-03-08T01:09:02;32.67;;;12.77;;
26989;SDS011;14537;47.788;11.858;2024-03-08T01:11:28;32.30;;;12.30;;
26989;SDS011;14537;47.788;11.858;2024-03-08T01:13:53;34.33;;;12.88;;
26989;SDS011;14537;47.788;11.858;2024-03-08T01:16:19;33.70;;;12.45;;
26989;SDS011;14537;47.788;11.858;2024-03-08T01:18:46;31.40;;;12.27;;
26989;SDS011;14537;47.788;11.858;2024-03-08T01:21:12;31.42;;;12.95;;
26989;SDS011;14537;47.788;11.858;2024-03-08T01:23:38;39.10;;;12.60;;
26989;SDS011;14537;47.788;11.858;2024-03-08T01:26:04;38.03;;;14.35;;
26989;SDS011;14537;47.788;11.858;2024-03-08T01:28:29;36.45;;;14.15;;
26989;SDS011;14537;47.788;11.858;2024-03-08T01:30:55;36.55;;;14.30;;
26989;SDS011;14537;47.788;11.858;2024-03-08T01:33:22;31.75;;;12.98;;
26989;SDS011;14537;47.788;11.858;2024-03-08T01:35:50;36.08;;;13.55;;
26989;SDS011;14537;47.788;11.858;2024-03-08T01:38:16;34.28;;;13.55;;
26989;SDS011;14537;47.788;11.858;2024-03-08T01:40:42;31.90;;;13.32;;
26989;SDS011;14537;47.788;11.858;2024-03-08T01:43:20;37.65;;;13.20;;
26989;SDS011;14537;47.788;11.858;2024-03-08T01:48:14;30.23;;;12.38;;
26989;SDS011;14537;47.788;11.858;2024-03-08T01:50:40;37.83;;;13.15;;
26989;SDS011;14537;47.788;11.858;2024-03-08T01:53:07;39.42;;;14.02;;
26989;SDS011;14537;47.788;11.858;2024-03-08T01:55:35;30.73;;;13.05;;
26989;SDS011;14537;47.788;11.858;2024-03-08T01:58:02;38.20;;;14.32;;
26989;SDS011;14537;47.788;11.858;2024-03-08T02:00:29;33.90;;;12.45;;
26989;SDS011;14537;47.788;11.858;2024-03-08T02:02:57;34.20;;;13.20;;
26989;SDS011;14537;47.788;11.858;2024-03-08T02:05:22;33.03;;;13.20;;
26989;SDS011;14537;47.788;11.858;2024-03-08T02:07:48;36.58;;;14.45;;
26989;SDS011;14537;47.788;11.858;2024-03-08T02:10:14;35.22;;;14.43;;
26989;SDS011;14537;47.788;11.858;2024-03-08T02:12:40;42.45;;;15.32;;
26989;SDS011;14537;47.788;11.858;2024-03-08T02:15:06;37.22;;;12.38;;
26989;SDS011;14537;47.788;11.858;2024-03-08T02:17:32;36.13;;;14.38;;
26989;SDS011;14537;47.788;11.858;2024-03-08T02:19:58;35.80;;;12.63;;
26989;SDS011;14537;47.788;11.858;2024-03-08T02:22:28;44.95;;;14.38;;
26989;SDS011;14537;47.788;11.858;2024-03-08T02:24:56;37.28;;;14.02;;
26989;SDS011;14537;47.788;11.858;2024-03-08T02:27:24;36.25;;;14.45;;
26989;SDS011;14537;47.788;11.858;2024-03-08T02:29:56;39.38;;;13.63;;
26989;SDS011;14537;47.788;11.858;2024-03-08T02:34:48;30.75;;;11.10;;
26989;SDS011;14537;47.788;11.858;2024-03-08T02:37:14;35.40;;;13.18;;
26989;SDS011;14537;47.788;11.858;2024-03-08T02:39:40;40.85;;;12.45;;
26989;SDS011;14537;47.788;11.858;2024-03-08T02:42:06;35.72;;;12.52;;
26989;SDS011;14537;47.788;11.858;2024-03-08T02:44:32;39.92;;;12.57;;
26989;SDS011;14537;47.788;11.858;2024-03-08T02:46:58;37.30;;;13.40;;
26989;SDS011;14537;47.788;11.858;2024-03-08T02:49:25;36.03;;;13.68;;
26989;SDS011;14537;47.788;11.858;2024-03-08T02:51:54;37.30;;;13.00;;
26989;SDS011;14537;47.788;11.858;2024-03-08T02:54:22;36.05;;;13.18;;
26989;SDS011;14537;47.788;11.858;2024-03-08T02:56:49;33.78;;;11.95;;
26989;SDS011;14537;47.788;11.858;2024-03-08T02:59:17;34.97;;;12.07;;
26989;SDS011;14537;47.788;11.858;2024-03-08T03:01:43;31.75;;;12.00;;
26989;SDS011;14537;47.788;11.858;2024-03-08T03:04:09;28.13;;;11.35;;
26989;SDS011;14537;47.788;11.858;2024-03-08T03:06:35;33.75;;;12.27;;
26989;SDS011;14537;47.788;11.858;2024-03-08T03:09:01;33.20;;;12.68;;
26989;SDS011;14537;47.788;11.858;2024-03-08T03:11:26;33.60;;;13.15;;
26989;SDS011;14537;47.788;11.858;2024-03-08T03:13:52;28.20;;;11.30;;
26989;SDS011;14537;47.788;11.858;2024-03-08T03:16:18;39.38;;;12.80;;
26989;SDS011;14537;47.788;11.858;2024-03-08T03:18:45;31.77;;;11.27;;
26989;SDS011;14537;47.788;11.858;2024-03-08T03:21:11;28.52;;;11.52;;
26989;SDS011;14537;47.788;11.858;2024-03-08T03:23:38;31.15;;;11.35;;
26989;SDS011;14537;47.788;11.858;2024-03-08T03:26:10;28.55;;;10.73;;
26989;SDS011;14537;47.788;11.858;2024-03-08T03:28:38;26.80;;;11.57;;
26989;SDS011;14537;47.788;11.858;2024-03-08T03:31:07;27.67;;;11.38;;
26989;SDS011;14537;47.788;11.858;2024-03-08T03:33:32;29.00;;;11.90;;
26989;SDS011;14537;47.788;11.858;2024-03-08T03:36:01;31.00;;;12.13;;
26989;SDS011;14537;47.788;11.858;2024-03-08T03:38:27;32.78;;;12.25;;
26989;SDS011;14537;47.788;11.858;2024-03-08T03:40:53;30.80;;;11.27;;
26989;SDS011;14537;47.788;11.858;2024-03-08T03:43:22;35.03;;;12.15;;
26989;SDS011;14537;47.788;11.858;2024-03-08T03:45:48;32.25;;;12.07;;
26989;SDS011;14537;47.788;11.858;2024-03-08T03:48:14;31.27;;;11.43;;
26989;SDS011;14537;47.788;11.858;2024-03-08T03:50:39;33.88;;;12.10;;
26989;SDS011;14537;47.788;11.858;2024-03-08T03:53:05;34.88;;;11.95;;
26989;SDS011;14537;47.788;11.858;2024-03-08T03:55:33;33.03;;;12.48;;
26989;SDS011;14537;47.788;11.858;2024-03-08T03:57:59;32.92;;;12.43;;
26989;SDS011;14537;47.788;11.858;2024-03-08T04:00:26;33.33;;;12.25;;
26989;SDS011;14537;47.788;11.858;2024-03-08T04:02:52;33.13;;;11.70;;
26989;SDS011;14537;47.788;11.858;2024-03-08T04:05:18;32.95;;;11.98;;
26989;SDS011;14537;47.788;11.858;2024-03-08T04:07:43;29.50;;;12.00;;
26989;SDS011;14537;47.788;11.858;2024-03-08T04:10:10;29.40;;;10.25;;
26989;SDS011;14537;47.788;11.858;2024-03-08T04:12:37;31.30;;;11.75;;
26989;SDS011;14537;47.788;11.858;2024-03-08T04:15:04;31.65;;;12.50;;
26989;SDS011;14537;47.788;11.858;2024-03-08T04:17:35;30.98;;;11.27;;
26989;SDS011;14537;47.788;11.858;2024-03-08T04:20:02;27.67;;;11.02;;
26989;SDS011;14537;47.788;11.858;2024-03-08T04:22:34;31.90;;;11.07;;
26989;SDS011;14537;47.788;11.858;2024-03-08T04:25:03;27.15;;;10.27;;
26989;SDS011;14537;47.788;11.858;2024-03-08T04:27:28;27.98;;;11.18;;
26989;SDS011;14537;47.788;11.858;2024-03-08T04:29:54;31.00;;;11.38;;
26989;SDS011;14537;47.788;11.858;2024-03-08T04:32:20;29.45;;;10.88;;
26989;SDS011;14537;47.788;11.858;2024-03-08T04:34:45;30.20;;;12.85;;
26989;SDS011;14537;47.788;11.858;2024-03-08T04:37:11;26.75;;;10.80;;
26989;SDS011;14537;47.788;11.858;2024-03-08T04:39:39;31.63;;;11.45;;
26989;SDS011;14537;47.788;11.858;2024-03-08T04:42:04;31.48;;;11.15;;
26989;SDS011;14537;47.788;11.858;2024-03-08T04:44:35;29.70;;;11.55;;
26989;SDS011;14537;47.788;11.858;2024-03-08T04:47:02;37.28;;;11.93;;
26989;SDS011;14537;47.788;11.858;2024-03-08T04:49:30;27.05;;;11.00;;
26989;SDS011;14537;47.788;11.858;2024-03-08T04:51:57;33.40;;;12.07;;
26989;SDS011;14537;47.788;11.858;2024-03-08T04:54:22;31.98;;;11.10;;
26989;SDS011;14537;47.788;11.858;2024-03-08T04:56:49;28.63;;;11.80;;
26989;SDS011;14537;47.788;11.858;2024-03-08T04:59:14;32.10;;;11.93;;
26989;SDS011;14537;47.788;11.858;2024-03-08T05:01:40;30.15;;;12.02;;
26989;SDS011;14537;47.788;11.858;2024-03-08T05:04:05;26.92;;;10.30;;
26989;SDS011;14537;47.788;11.858;2024-03-08T05:06:31;29.50;;;11.30;;
26989;SDS011;14537;47.788;11.858;2024-03-08T05:08:56;27.73;;;11.23;;
26989;SDS011;14537;47.788;11.858;2024-03-08T05:11:22;36.53;;;14.95;;
26989;SDS011;14537;47.788;11.858;2024-03-08T05:13:48;31.52;;;13.05;;
26989;SDS011;14537;47.788;11.858;2024-03-08T05:16:13;31.70;;;11.50;;
26989;SDS011;14537;47.788;11.858;2024-03-08T05:18:40;32.80;;;12.05;;
26989;SDS011;14537;47.788;11.858;2024-03-08T05:21:07;32.97;;;12.07;;
26989;SDS011;14537;47.788;11.858;2024-03-08T05:23:34;33.38;;;11.90;;
26989;SDS011;14537;47.788;11.858;2024-03-08T05:26:00;25.27;;;10.88;;
26989;SDS011;14537;47.788;11.858;2024-03-08T05:28:26;24.75;;;10.82;;
26989;SDS011;14537;47.788;11.858;2024-03-08T05:30:51;32.88;;;11.98;;
26989;SDS011;14537;47.788;11.858;2024-03-08T05:33:17;33.20;;;12.52;;
26989;SDS011;14537;47.788;11.858;2024-03-08T05:35:44;39.90;;;11.90;;
26989;SDS011;14537;47.788;11.858;2024-03-08T05:38:10;27.33;;;11.20;;
26989;SDS011;14537;47.788;11.858;2024-03-08T05:40:37;30.35;;;10.57;;
26989;SDS011;14537;47.788;11.858;2024-03-08T05:43:03;25.15;;;10.85;;
26989;SDS011;14537;47.788;11.858;2024-03-08T05:45:30;35.20;;;11.57;;
26989;SDS011;14537;47.788;11.858;2024-03-08T05:47:55;32.67;;;12.05;;
26989;SDS011;14537;47.788;11.858;2024-03-08T05:50:21;28.52;;;11.30;;
26989;SDS011;14537;47.788;11.858;2024-03-08T05:52:47;27.23;;;10.68;;
26989;SDS011;14537;47.788;11.858;2024-03-08T05:55:13;24.90;;;10.55;;
26989;SDS011;14537;47.788;11.858;2024-03-08T05:57:39;25.30;;;10.18;;
26989;SDS011;14537;47.788;11.858;2024-03-08T06:00:05;27.70;;;10.73;;
26989;SDS011;14537;47.788;11.858;2024-03-08T06:02:31;33.42;;;11.77;;
26989;SDS011;14537;47.788;11.858;2024-03-08T06:04:58;29.38;;;11.05;;
26989;SDS011;14537;47.788;11.858;2024-03-08T06:07:23;29.08;;;11.18;;
26989;SDS011;14537;47.788;11.858;2024-03-08T06:09:49;29.08;;;11.98;;
26989;SDS011;14537;47.788;11.858;2024-03-08T06:12:15;31.42;;;12.00;;
26989;SDS011;14537;47.788;11.858;2024-03-08T06:14:44;30.15;;;11.95;;
26989;SDS011;14537;47.788;11.858;2024-03-08T06:17:11;31.38;;;11.90;;
26989;SDS011;14537;47.788;11.858;2024-03-08T06:19:36;32.85;;;12.60;;
26989;SDS011;14537;47.788;11.858;2024-03-08T06:22:02;30.13;;;12.48;;
26989;SDS011;14537;47.788;11.858;2024-03-08T06:24:30;31.00;;;11.70;;
26989;SDS011;14537;47.788;11.858;2024-03-08T06:26:56;30.77;;;11.43;;
26989;SDS011;14537;47.788;11.858;2024-03-08T06:29:22;29.35;;;10.93;;
26989;SDS011;14537;47.788;11.858;2024-03-08T06:31:48;33.15;;;11.75;;
26989;SDS011;14537;47.788;11.858;2024-03-08T06:34:14;29.67;;;11.50;;
26989;SDS011;14537;47.788;11.858;2024-03-08T06:36:40;28.73;;;10.77;;
26989;SDS011;14537;47.788;11.858;2024-03-08T06:39:06;24.48;;;10.18;;
26989;SDS011;14537;47.788;11.858;2024-03-08T06:41:37;31.57;;;11.57;;
26989;SDS011;14537;47.788;11.858;2024-03-08T06:44:03;27.35;;;10.82;;
26989;SDS011;14537;47.788;11.858;2024-03-08T06:46:29;27.27;;;11.05;;
26989;SDS011;14537;47.788;11.858;2024-03-08T06:48:54;27.00;;;10.85;;
26989;SDS011;14537;47.788;11.858;2024-03-08T06:51:20;31.00;;;11.05;;
26989;SDS011;14537;47.788;11.858;2024-03-08T06:53:46;27.70;;;10.32;;
26989;SDS011;14537;47.788;11.858;2024-03-08T06:56:14;24.80;;;9.60;;
26989;SDS011;14537;47.788;11.858;2024-03-08T06:58:40;26.48;;;10.60;;
26989;SDS011;14537;47.788;11.858;2024-03-08T07:01:06;26.67;;;10.45;;
26989;SDS011;14537;47.788;11.858;2024-03-08T07:03:32;27.77;;;10.50;;
26989;SDS011;14537;47.788;11.858;2024-03-08T07:05:58;27.38;;;12.07;;
26989;SDS011;14537;47.788;11.858;2024-03-08T07:08:24;31.00;;;11.30;;
26989;SDS011;14537;47.788;11.858;2024-03-08T07:10:51;25.27;;;9.65;;
26989;SDS011;14537;47.788;11.858;2024-03-08T07:13:18;22.25;;;9.45;;
26989;SDS011;14537;47.788;11.858;2024-03-08T07:15:43;31.48;;;10.98;;
26989;SDS011;14537;47.788;11.858;2024-03-08T07:18:10;36.40;;;12.27;;
26989;SDS011;14537;47.788;11.858;2024-03-08T07:20:39;25.05;;;10.18;;
26989;SDS011;14537;47.788;11.858;2024-03-08T07:23:05;30.67;;;10.90;;
26989;SDS011;14537;47.788;11.858;2024-03-08T07:25:31;31.35;;;10.43;;
26989;SDS011;14537;47.788;11.858;2024-03-08T07:27:56;26.38;;;11.77;;
26989;SDS011;14537;47.788;11.858;2024-03-08T07:30:24;32.28;;;11.48;;
26989;SDS011;14537;47.788;11.858;2024-03-08T07:33:08;28.90;;;10.68;;
26989;SDS011;14537;47.788;11.858;2024-03-08T07:35:37;34.42;;;10.40;;
26989;SDS011;14537;47.788;11.858;2024-03-08T07:38:06;27.40;;;9.60;;
26989;SDS011;14537;47.788;11.858;2024-03-08T07:40:36;23.30;;;9.10;;
26989;SDS011;14537;47.788;11.858;2024-03-08T07:43:05;25.02;;;9.57;;
26989;SDS011;14537;47.788;11.858;2024-03-08T07:45:33;28.05;;;11.07;;
26989;SDS011;14537;47.788;11.858;2024-03-08T07:48:00;27.65;;;11.18;;
26989;SDS011;14537;47.788;11.858;2024-03-08T07:50:28;25.98;;;10.50;;
26989;SDS011;14537;47.788;11.858;2024-03-08T07:52:53;19.17;;;8.10;;
26989;SDS011;14537;47.788;11.858;2024-03-08T07:55:19;26.40;;;9.98;;
26989;SDS011;14537;47.788;11.858;2024-03-08T07:57:45;23.38;;;9.95;;
26989;SDS011;14537;47.788;11.858;2024-03-08T08:00:13;24.88;;;9.75;;
26989;SDS011;14537;47.788;11.858;2024-03-08T08:02:42;27.13;;;9.68;;
26989;SDS011;14537;47.788;11.858;2024-03-08T08:05:11;24.33;;;9.88;;
26989;SDS011;14537;47.788;11.858;2024-03-08T08:07:37;32.97;;;11.55;;
26989;SDS011;14537;47.788;11.858;2024-03-08T08:10:03;22.73;;;9.18;;
26989;SDS011;14537;47.788;11.858;2024-03-08T08:12:31;30.42;;;9.73;;
26989;SDS011;14537;47.788;11.858;2024-03-08T08:14:59;29.48;;;11.73;;
26989;SDS011;14537;47.788;11.858;2024-03-08T08:17:24;26.20;;;9.40;;
26989;SDS011;14537;47.788;11.858;2024-03-08T08:19:50;28.15;;;9.80;;
26989;SDS011;14537;47.788;11.858;2024-03-08T08:22:15;26.48;;;9.52;;
26989;SDS011;14537;47.788;11.858;2024-03-08T08:24:43;22.98;;;9.40;;
26989;SDS011;14537;47.788;11.858;2024-03-08T08:27:08;27.65;;;10.07;;
26989;SDS011;14537;47.788;11.858;2024-03-08T08:29:34;27.15;;;9.77;;
26989;SDS011;14537;47.788;11.858;2024-03-08T08:32:00;23.98;;;9.48;;
26989;SDS011;14537;47.788;11.858;2024-03-08T08:34:26;21.85;;;8.90;;
26989;SDS011;14537;47.788;11.858;2024-03-08T08:36:52;25.98;;;10.18;;
26989;SDS011;14537;47.788;11.858;2024-03-08T08:39:18;22.15;;;8.95;;
26989;SDS011;14537;47.788;11.858;2024-03-08T08:41:44;22.02;;;9.40;;
26989;SDS011;14537;47.788;11.858;2024-03-08T08:44:09;21.80;;;9.00;;
26989;SDS011;14537;47.788;11.858;2024-03-08T08:46:37;24.02;;;9.38;;
26989;SDS011;14537;47.788;11.858;2024-03-08T08:49:03;24.58;;;10.35;;
26989;SDS011;14537;47.788;11.858;2024-03-08T08:51:30;24.38;;;9.35;;
26989;SDS011;14537;47.788;11.858;2024-03-08T08:53:58;26.15;;;9.57;;
26989;SDS011;14537;47.788;11.858;2024-03-08T08:56:24;23.40;;;9.65;;
26989;SDS011;14537;47.788;11.858;2024-03-08T08:58:50;24.83;;;10.07;;
26989;SDS011;14537;47.788;11.858;2024-03-08T09:01:16;23.23;;;10.07;;
26989;SDS011;14537;47.788;11.858;2024-03-08T09:03:43;23.63;;;9.00;;
26989;SDS011;14537;47.788;11.858;2024-03-08T09:06:11;27.08;;;9.48;;
26989;SDS011;14537;47.788;11.858;2024-03-08T09:08:38;23.10;;;9.18;;
26989;SDS011;14537;47.788;11.858;2024-03-08T09:11:04;24.13;;;9.13;;
26989;SDS011;14537;47.788;11.858;2024-03-08T09:13:30;20.92;;;9.75;;
26989;SDS011;14537;47.788;11.858;2024-03-08T09:15:56;25.63;;;10.05;;
26989;SDS011;14537;47.788;11.858;2024-03-08T09:18:22;23.08;;;9.55;;
26989;SDS011;14537;47.788;11.858;2024-03-08T09:20:49;25.92;;;9.93;;
26989;SDS011;14537;47.788;11.858;2024-03-08T09:23:14;25.67;;;10.23;;
26989;SDS011;14537;47.788;11.858;2024-03-08T09:25:41;27.08;;;10.00;;
26989;SDS011;14537;47.788;11.858;2024-03-08T09:28:08;21.60;;;9.18;;
26989;SDS011;14537;47.788;11.858;2024-03-08T09:30:34;24.73;;;9.93;;
26989;SDS011;14537;47.788;11.858;2024-03-08T09:33:00;22.73;;;9.55;;
26989;SDS011;14537;47.788;11.858;2024-03-08T09:35:27;23.10;;;9.68;;
26989;SDS011;14537;47.788;11.858;2024-03-08T09:37:52;23.15;;;9.95;;
26989;SDS011;14537;47.788;11.858;2024-03-08T09:40:18;24.13;;;8.88;;
26989;SDS011;14537;47.788;11.858;2024-03-08T09:42:45;27.63;;;9.68;;
26989;SDS011;14537;47.788;11.858;2024-03-08T09:45:12;23.42;;;9.48;;
26989;SDS011;14537;47.788;11.858;2024-03-08T09:47:42;27.45;;;10.88;;
26989;SDS011;14537;47.788;11.858;2024-03-08T09:50:09;22.13;;;10.35;;
26989;SDS011;14537;47.788;11.858;2024-03-08T09:52:38;24.33;;;9.98;;
26989;SDS011;14537;47.788;11.858;2024-03-08T09:55:05;24.02;;;10.43;;
26989;SDS011;14537;47.788;11.858;2024-03-08T09:57:35;28.55;;;9.88;;
26989;SDS011;14537;47.788;11.858;2024-03-08T10:00:02;21.25;;;9.40;;
26989;SDS011;14537;47.788;11.858;2024-03-08T10:02:37;25.92;;;10.85;;
26989;SDS011;14537;47.788;11.858;2024-03-08T10:05:02;22.95;;;9.88;;
26989;SDS011;14537;47.788;11.858;2024-03-08T10:07:28;20.35;;;9.63;;
26989;SDS011;14537;47.788;11.858;2024-03-08T10:09:54;24.05;;;10.38;;
26989;SDS011;14537;47.788;11.858;2024-03-08T10:12:19;23.80;;;9.63;;
26989;SDS011;14537;47.788;11.858;2024-03-08T10:14:45;25.27;;;9.75;;
26989;SDS011;14537;47.788;11.858;2024-03-08T10:17:11;23.65;;;9.48;;
26989;SDS011;14537;47.788;11.858;2024-03-08T10:19:37;21.95;;;9.43;;
26989;SDS011;14537;47.788;11.858;2024-03-08T10:22:04;24.42;;;9.82;;
26989;SDS011;14537;47.788;11.858;2024-03-08T10:24:30;21.08;;;8.88;;
26989;SDS011;14537;47.788;11.858;2024-03-08T10:26:58;21.52;;;8.90;;
26989;SDS011;14537;47.788;11.858;2024-03-08T10:29:26;18.60;;;8.13;;
26989;SDS011;14537;47.788;11.858;2024-03-08T10:31:53;22.55;;;9.52;;
26989;SDS011;14537;47.788;11.858;2024-03-08T10:34:20;22.08;;;9.50;;
26989;SDS011;14537;47.788;11.858;2024-03-08T10:36:48;21.08;;;8.13;;
26989;SDS011;14537;47.788;11.858;2024-03-08T10:39:22;19.90;;;9.07;;
26989;SDS011;14537;47.788;11.858;2024-03-08T10:41:55;22.10;;;9.40;;
26989;SDS011;14537;47.788;11.858;2024-03-08T10:49:41;21.50;;;8.98;;
26989;SDS011;14537;47.788;11.858;2024-03-08T10:52:15;19.33;;;7.80;;
26989;SDS011;14537;47.788;11.858;2024-03-08T10:54:43;22.00;;;9.48;;
26989;SDS011;14537;47.788;11.858;2024-03-08T10:57:10;21.70;;;8.60;;
26989;SDS011;14537;47.788;11.858;2024-03-08T10:59:38;24.48;;;8.65;;
26989;SDS011;14537;47.788;11.858;2024-03-08T11:02:04;19.70;;;8.52;;
26989;SDS011;14537;47.788;11.858;2024-03-08T11:04:33;16.55;;;7.68;;
26989;SDS011;14537;47.788;11.858;2024-03-08T11:07:02;31.67;;;11.00;;
26989;SDS011;14537;47.788;11.858;2024-03-08T11:09:32;23.05;;;9.02;;
26989;SDS011;14537;47.788;11.858;2024-03-08T11:14:50;16.33;;;7.33;;
26989;SDS011;14537;47.788;11.858;2024-03-08T11:17:26;18.63;;;8.30;;
26989;SDS011;14537;47.788;11.858;2024-03-08T11:19:52;16.52;;;6.93;;
26989;SDS011;14537;47.788;11.858;2024-03-08T11:22:28;19.40;;;8.27;;
26989;SDS011;14537;47.788;11.858;2024-03-08T11:25:04;19.63;;;7.57;;
26989;SDS011;14537;47.788;11.858;2024-03-08T11:27:35;18.02;;;7.63;;
26989;SDS011;14537;47.788;11.858;2024-03-08T11:30:05;16.92;;;8.35;;
26989;SDS011;14537;47.788;11.858;2024-03-08T11:32:36;17.42;;;7.15;;
26989;SDS011;14537;47.788;11.858;2024-03-08T11:35:05;17.25;;;7.72;;
26989;SDS011;14537;47.788;11.858;2024-03-08T11:37:33;18.65;;;7.63;;
26989;SDS011;14537;47.788;11.858;2024-03-08T11:40:02;16.58;;;7.80;;
26989;SDS011;14537;47.788;11.858;2024-03-08T11:42:39;19.50;;;8.00;;
26989;SDS011;14537;47.788;11.858;2024-03-08T11:45:09;19.15;;;7.05;;
26989;SDS011;14537;47.788;11.858;2024-03-08T11:47:36;17.20;;;8.02;;
26989;SDS011;14537;47.788;11.858;2024-03-08T11:50:05;16.25;;;7.05;;
26989;SDS011;14537;47.788;11.858;2024-03-08T11:52:35;30.05;;;8.50;;
26989;SDS011;14537;47.788;11.858;2024-03-08T11:55:01;17.48;;;7.22;;
26989;SDS011;14537;47.788;11.858;2024-03-08T11:57:30;16.42;;;8.13;;
26989;SDS011;14537;47.788;11.858;2024-03-08T11:59:57;20.83;;;7.05;;
26989;SDS011;14537;47.788;11.858;2024-03-08T12:02:31;24.45;;;7.03;;
26989;SDS011;14537;47.788;11.858;2024-03-08T12:04:57;12.65;;;6.15;;
26989;SDS011;14537;47.788;11.858;2024-03-08T12:07:28;18.48;;;7.47;;
26989;SDS011;14537;47.788;11.858;2024-03-08T12:10:15;15.10;;;7.00;;
26989;SDS011;14537;47.788;11.858;2024-03-08T12:12:46;14.55;;;6.63;;
26989;SDS011;14537;47.788;11.858;2024-03-08T12:15:17;15.13;;;6.90;;
26989;SDS011;14537;47.788;11.858;2024-03-08T12:17:44;16.58;;;7.60;;
26989;SDS011;14537;47.788;11.858;2024-03-08T12:20:20;13.40;;;5.88;;
26989;SDS011;14537;47.788;11.858;2024-03-08T12:22:47;12.25;;;5.85;;
26989;SDS011;14537;47.788;11.858;2024-03-08T12:25:14;16.30;;;6.38;;
26989;SDS011;14537;47.788;11.858;2024-03-08T12:27:41;13.50;;;6.68;;
26989;SDS011;14537;47.788;11.858;2024-03-08T12:30:20;14.15;;;6.55;;
26989;SDS011;14537;47.788;11.858;2024-03-08T12:32:48;14.98;;;6.32;;
26989;SDS011;14537;47.788;11.858;2024-03-08T12:35:22;15.93;;;6.78;;
26989;SDS011;14537;47.788;11.858;2024-03-08T12:40:16;17.02;;;6.80;;
26989;SDS011;14537;47.788;11.858;2024-03-08T12:42:43;12.18;;;6.35;;
26989;SDS011;14537;47.788;11.858;2024-03-08T12:45:09;13.00;;;6.30;;
26989;SDS011;14537;47.788;11.858;2024-03-08T12:47:35;12.40;;;6.43;;
26989;SDS011;14537;47.788;11.858;2024-03-08T12:50:01;15.05;;;7.32;;
26989;SDS011;14537;47.788;11.858;2024-03-08T12:52:28;14.20;;;6.60;;
26989;SDS011;14537;47.788;11.858;2024-03-08T12:54:55;16.20;;;7.05;;
26989;SDS011;14537;47.788;11.858;2024-03-08T12:57:20;14.73;;;7.35;;
26989;SDS011;14537;47.788;11.858;2024-03-08T12:59:46;18.48;;;7.35;;
26989;SDS011;14537;47.788;11.858;2024-03-08T13:02:12;16.65;;;6.55;;
26989;SDS011;14537;47.788;11.858;2024-03-08T13:04:37;16.90;;;7.07;;
26989;SDS011;14537;47.788;11.858;2024-03-08T13:07:03;12.55;;;6.38;;
26989;SDS011;14537;47.788;11.858;2024-03-08T13:09:28;17.15;;;6.85;;
26989;SDS011;14537;47.788;11.858;2024-03-08T13:11:54;13.45;;;6.43;;
26989;SDS011;14537;47.788;11.858;2024-03-08T13:14:20;14.50;;;7.18;;
26989;SDS011;14537;47.788;11.858;2024-03-08T13:16:47;16.42;;;7.10;;
26989;SDS011;14537;47.788;11.858;2024-03-08T13:19:13;15.90;;;7.22;;
26989;SDS011;14537;47.788;11.858;2024-03-08T13:21:39;15.40;;;6.88;;
26989;SDS011;14537;47.788;11.858;2024-03-08T13:24:04;13.98;;;6.55;;
26989;SDS011;14537;47.788;11.858;2024-03-08T13:26:30;13.60;;;6.90;;
26989;SDS011;14537;47.788;11.858;2024-03-08T13:28:59;20.33;;;7.05;;
26989;SDS011;14537;47.788;11.858;2024-03-08T13:31:24;18.45;;;8.30;;
26989;SDS011;14537;47.788;11.858;2024-03-08T13:33:50;16.33;;;7.15;;
26989;SDS011;14537;47.788;11.858;2024-03-08T13:36:22;16.35;;;6.95;;
26989;SDS011;14537;47.788;11.858;2024-03-08T13:38:51;16.55;;;7.60;;
26989;SDS011;14537;47.788;11.858;2024-03-08T13:41:16;21.33;;;8.57;;
26989;SDS011;14537;47.788;11.858;2024-03-08T13:43:45;19.67;;;7.88;;
26989;SDS011;14537;47.788;11.858;2024-03-08T13:46:14;12.90;;;6.78;;
26989;SDS011;14537;47.788;11.858;2024-03-08T13:48:40;15.57;;;7.05;;
26989;SDS011;14537;47.788;11.858;2024-03-08T13:51:06;14.52;;;6.75;;
26989;SDS011;14537;47.788;11.858;2024-03-08T13:53:33;21.70;;;7.85;;
26989;SDS011;14537;47.788;11.858;2024-03-08T13:56:00;16.98;;;7.38;;
26989;SDS011;14537;47.788;11.858;2024-03-08T13:58:26;14.57;;;6.38;;
26989;SDS011;14537;47.788;11.858;2024-03-08T14:00:52;15.40;;;6.97;;
26989;SDS011;14537;47.788;11.858;2024-03-08T14:03:18;17.50;;;7.97;;
26989;SDS011;14537;47.788;11.858;2024-03-08T14:05:43;17.60;;;7.63;;
26989;SDS011;14537;47.788;11.858;2024-03-08T14:08:10;15.80;;;7.00;;
26989;SDS011;14537;47.788;11.858;2024-03-08T14:10:37;17.92;;;7.95;;
26989;SDS011;14537;47.788;11.858;2024-03-08T14:13:03;15.10;;;7.35;;
26989;SDS011;14537;47.788;11.858;2024-03-08T14:15:33;17.00;;;7.78;;
26989;SDS011;14537;47.788;11.858;2024-03-08T14:18:06;19.55;;;7.22;;
26989;SDS011;14537;47.788;11.858;2024-03-08T14:20:32;19.80;;;8.02;;
26989;SDS011;14537;47.788;11.858;2024-03-08T14:22:58;18.20;;;7.78;;
26989;SDS011;14537;47.788;11.858;2024-03-08T14:25:23;17.98;;;7.05;;
26989;SDS011;14537;47.788;11.858;2024-03-08T14:27:50;18.15;;;8.48;;